KDFW

Dallas-Fort Worth International Airport

Dallas-Fort Worth, Texas, USA
METAR KDFW 211253Z 36017KT 9SM -RA BKN010 BKN045 OVC085 02/00 A3024 RMK AO2 SLP241 P0007 T00170000
Observed Flight Rules
Feb-21 @ 12:53 UTC (20 minutes ago) Marginal Visual Flight Rules
Wind Visibility Clouds Conditions
360° at 17 knots 9 miles
  • Broken at 1,000' AGL
  • Broken at 4,500' AGL
  • Overcast at 8,500' AGL
  • Light Rain
Temperatures Readings Precipitation
Current 2°C / 36°F
Dewpoint 0°C / 32°F
Humidity 87%
Altimeter 30.24" Hg
Pressure 1024.1 hPa
Elevation 174
Current Rain 0.07
METAR KDFW 211253Z 36017KT 9SM -RA BKN010 BKN045 OVC085 02/00 A3024 RMK AO2 SLP241 P0007 T00170000
Observed Flight Rules
Feb-21 @ 12:53 UTC
(20 minutes ago)
MVFR
Wind Visibility
360° at 17 knots 9 miles
Clouds
  • Broken at 1,000' AGL
  • Broken at 4,500' AGL
  • Overcast at 8,500' AGL
Conditions
  • Light Rain
Temperature Dewpoint
2°C / 36°F 0°C / 32°F
Humidity Altimeter Pressure
87% 30.24" Hg 1024.1 hPa
Current Rain
0.07